sensor_id;sensor_type;location;lat;lon;timestamp;P1;durP1;ratioP1;P2;durP2;ratioP2
6860;SDS011;3469;47.060;15.460;2022-09-12T00:01:18;2.23;;;1.30;;
6860;SDS011;3469;47.060;15.460;2022-09-12T00:03:50;3.90;;;1.73;;
6860;SDS011;3469;47.060;15.460;2022-09-12T00:06:19;1.60;;;1.10;;
6860;SDS011;3469;47.060;15.460;2022-09-12T00:08:49;1.80;;;1.30;;
6860;SDS011;3469;47.060;15.460;2022-09-12T00:11:17;3.00;;;1.43;;
6860;SDS011;3469;47.060;15.460;2022-09-12T00:13:46;1.63;;;1.40;;
6860;SDS011;3469;47.060;15.460;2022-09-12T00:16:14;2.37;;;1.60;;
6860;SDS011;3469;47.060;15.460;2022-09-12T00:18:45;2.23;;;1.00;;
6860;SDS011;3469;47.060;15.460;2022-09-12T00:21:13;2.17;;;1.23;;
6860;SDS011;3469;47.060;15.460;2022-09-12T00:23:42;2.30;;;1.50;;
6860;SDS011;3469;47.060;15.460;2022-09-12T00:26:11;2.23;;;1.27;;
6860;SDS011;3469;47.060;15.460;2022-09-12T00:28:40;1.50;;;1.30;;
6860;SDS011;3469;47.060;15.460;2022-09-12T00:31:09;3.10;;;1.10;;
6860;SDS011;3469;47.060;15.460;2022-09-12T00:33:38;3.20;;;1.20;;
6860;SDS011;3469;47.060;15.460;2022-09-12T00:36:09;2.00;;;1.40;;
6860;SDS011;3469;47.060;15.460;2022-09-12T00:38:39;4.10;;;1.60;;
6860;SDS011;3469;47.060;15.460;2022-09-12T00:43:41;2.70;;;1.33;;
6860;SDS011;3469;47.060;15.460;2022-09-12T00:46:13;1.80;;;1.43;;
6860;SDS011;3469;47.060;15.460;2022-09-12T00:48:46;1.93;;;1.40;;
6860;SDS011;3469;47.060;15.460;2022-09-12T00:51:18;3.93;;;1.30;;
6860;SDS011;3469;47.060;15.460;2022-09-12T00:53:47;2.30;;;1.30;;
6860;SDS011;3469;47.060;15.460;2022-09-12T00:56:17;4.13;;;1.57;;
6860;SDS011;3469;47.060;15.460;2022-09-12T00:58:47;2.60;;;1.17;;
6860;SDS011;3469;47.060;15.460;2022-09-12T01:01:17;2.50;;;1.37;;
6860;SDS011;3469;47.060;15.460;2022-09-12T01:03:46;3.30;;;1.17;;
6860;SDS011;3469;47.060;15.460;2022-09-12T01:06:15;2.10;;;1.10;;
6860;SDS011;3469;47.060;15.460;2022-09-12T01:08:47;6.63;;;3.10;;
6860;SDS011;3469;47.060;15.460;2022-09-12T01:11:16;1.77;;;1.43;;
6860;SDS011;3469;47.060;15.460;2022-09-12T01:13:45;1.30;;;1.10;;
6860;SDS011;3469;47.060;15.460;2022-09-12T01:16:14;6.97;;;1.10;;
6860;SDS011;3469;47.060;15.460;2022-09-12T01:18:50;1.93;;;1.17;;
6860;SDS011;3469;47.060;15.460;2022-09-12T01:21:25;3.90;;;2.70;;
6860;SDS011;3469;47.060;15.460;2022-09-12T01:27:15;1.87;;;1.20;;
6860;SDS011;3469;47.060;15.460;2022-09-12T01:30:03;1.60;;;1.30;;
6860;SDS011;3469;47.060;15.460;2022-09-12T01:32:52;2.40;;;1.17;;
6860;SDS011;3469;47.060;15.460;2022-09-12T01:35:30;2.10;;;1.10;;
6860;SDS011;3469;47.060;15.460;2022-09-12T01:38:04;1.60;;;1.10;;
6860;SDS011;3469;47.060;15.460;2022-09-12T01:40:39;1.67;;;1.30;;
6860;SDS011;3469;47.060;15.460;2022-09-12T01:43:14;1.40;;;1.20;;
6860;SDS011;3469;47.060;15.460;2022-09-12T01:45:48;1.73;;;1.27;;
6860;SDS011;3469;47.060;15.460;2022-09-12T01:48:22;2.37;;;1.77;;
6860;SDS011;3469;47.060;15.460;2022-09-12T01:50:53;2.13;;;1.10;;
6860;SDS011;3469;47.060;15.460;2022-09-12T01:53:26;3.63;;;1.60;;
6860;SDS011;3469;47.060;15.460;2022-09-12T01:56:00;1.50;;;1.40;;
6860;SDS011;3469;47.060;15.460;2022-09-12T01:58:34;2.33;;;1.17;;
6860;SDS011;3469;47.060;15.460;2022-09-12T02:01:06;3.03;;;1.20;;
6860;SDS011;3469;47.060;15.460;2022-09-12T02:03:40;1.83;;;1.30;;
6860;SDS011;3469;47.060;15.460;2022-09-12T02:06:11;1.80;;;1.43;;
6860;SDS011;3469;47.060;15.460;2022-09-12T02:08:43;3.83;;;1.60;;
6860;SDS011;3469;47.060;15.460;2022-09-12T02:11:14;11.67;;;1.97;;
6860;SDS011;3469;47.060;15.460;2022-09-12T02:13:45;1.50;;;1.07;;
6860;SDS011;3469;47.060;15.460;2022-09-12T02:16:16;1.17;;;0.87;;
6860;SDS011;3469;47.060;15.460;2022-09-12T02:18:48;4.07;;;1.37;;
6860;SDS011;3469;47.060;15.460;2022-09-12T02:21:19;1.70;;;1.43;;
6860;SDS011;3469;47.060;15.460;2022-09-12T02:23:49;1.83;;;1.47;;
6860;SDS011;3469;47.060;15.460;2022-09-12T02:26:22;3.07;;;1.70;;
6860;SDS011;3469;47.060;15.460;2022-09-12T02:28:52;1.90;;;1.10;;
6860;SDS011;3469;47.060;15.460;2022-09-12T02:31:22;1.70;;;1.43;;
6860;SDS011;3469;47.060;15.460;2022-09-12T02:33:57;1.47;;;1.07;;
6860;SDS011;3469;47.060;15.460;2022-09-12T02:36:33;2.27;;;1.33;;
6860;SDS011;3469;47.060;15.460;2022-09-12T02:39:05;2.17;;;1.67;;
6860;SDS011;3469;47.060;15.460;2022-09-12T02:41:34;1.90;;;1.40;;
6860;SDS011;3469;47.060;15.460;2022-09-12T02:44:02;2.80;;;1.43;;
6860;SDS011;3469;47.060;15.460;2022-09-12T02:46:31;2.17;;;1.40;;
6860;SDS011;3469;47.060;15.460;2022-09-12T02:49:04;2.13;;;1.20;;
6860;SDS011;3469;47.060;15.460;2022-09-12T02:51:35;2.00;;;1.80;;
6860;SDS011;3469;47.060;15.460;2022-09-12T02:54:03;2.37;;;1.50;;
6860;SDS011;3469;47.060;15.460;2022-09-12T02:56:33;2.73;;;1.60;;
6860;SDS011;3469;47.060;15.460;2022-09-12T02:59:04;3.30;;;1.80;;
6860;SDS011;3469;47.060;15.460;2022-09-12T03:01:38;2.30;;;1.77;;
6860;SDS011;3469;47.060;15.460;2022-09-12T03:04:28;2.20;;;1.80;;
6860;SDS011;3469;47.060;15.460;2022-09-12T03:07:08;4.00;;;1.60;;
6860;SDS011;3469;47.060;15.460;2022-09-12T03:09:42;2.83;;;1.20;;
6860;SDS011;3469;47.060;15.460;2022-09-12T03:12:17;2.20;;;1.33;;
6860;SDS011;3469;47.060;15.460;2022-09-12T03:14:54;3.77;;;1.40;;
6860;SDS011;3469;47.060;15.460;2022-09-12T03:17:32;3.20;;;1.50;;
6860;SDS011;3469;47.060;15.460;2022-09-12T03:20:11;7.13;;;1.57;;
6860;SDS011;3469;47.060;15.460;2022-09-12T03:22:42;5.10;;;1.40;;
6860;SDS011;3469;47.060;15.460;2022-09-12T03:25:17;3.10;;;1.57;;
6860;SDS011;3469;47.060;15.460;2022-09-12T03:27:51;4.23;;;2.57;;
6860;SDS011;3469;47.060;15.460;2022-09-12T03:30:22;2.07;;;1.67;;
6860;SDS011;3469;47.060;15.460;2022-09-12T03:32:51;1.67;;;1.40;;
6860;SDS011;3469;47.060;15.460;2022-09-12T03:35:22;2.00;;;1.27;;
6860;SDS011;3469;47.060;15.460;2022-09-12T03:37:51;2.40;;;1.53;;
6860;SDS011;3469;47.060;15.460;2022-09-12T03:40:20;2.23;;;1.00;;
6860;SDS011;3469;47.060;15.460;2022-09-12T03:42:48;1.67;;;1.33;;
6860;SDS011;3469;47.060;15.460;2022-09-12T03:45:16;2.63;;;1.80;;
6860;SDS011;3469;47.060;15.460;2022-09-12T03:47:44;10.10;;;1.30;;
6860;SDS011;3469;47.060;15.460;2022-09-12T03:50:13;1.33;;;1.20;;
6860;SDS011;3469;47.060;15.460;2022-09-12T03:52:42;2.07;;;1.20;;
6860;SDS011;3469;47.060;15.460;2022-09-12T03:55:10;1.97;;;1.60;;
6860;SDS011;3469;47.060;15.460;2022-09-12T03:57:39;2.53;;;1.30;;
6860;SDS011;3469;47.060;15.460;2022-09-12T04:00:07;2.37;;;1.70;;
6860;SDS011;3469;47.060;15.460;2022-09-12T04:02:39;2.13;;;1.43;;
6860;SDS011;3469;47.060;15.460;2022-09-12T04:05:07;3.63;;;1.60;;
6860;SDS011;3469;47.060;15.460;2022-09-12T04:07:35;2.00;;;1.47;;
6860;SDS011;3469;47.060;15.460;2022-09-12T04:10:06;3.50;;;2.00;;
6860;SDS011;3469;47.060;15.460;2022-09-12T04:12:35;2.17;;;1.97;;
6860;SDS011;3469;47.060;15.460;2022-09-12T04:15:05;2.90;;;1.30;;
6860;SDS011;3469;47.060;15.460;2022-09-12T04:17:34;2.80;;;1.20;;
6860;SDS011;3469;47.060;15.460;2022-09-12T04:20:03;3.17;;;1.60;;
6860;SDS011;3469;47.060;15.460;2022-09-12T04:22:32;1.57;;;1.20;;
6860;SDS011;3469;47.060;15.460;2022-09-12T04:25:00;1.30;;;1.17;;
6860;SDS011;3469;47.060;15.460;2022-09-12T04:27:30;2.57;;;1.53;;
6860;SDS011;3469;47.060;15.460;2022-09-12T04:29:58;1.50;;;1.27;;
6860;SDS011;3469;47.060;15.460;2022-09-12T04:32:29;2.33;;;1.40;;
6860;SDS011;3469;47.060;15.460;2022-09-12T04:34:57;2.50;;;1.53;;
6860;SDS011;3469;47.060;15.460;2022-09-12T04:37:26;1.60;;;1.40;;
6860;SDS011;3469;47.060;15.460;2022-09-12T04:39:54;2.57;;;1.40;;
6860;SDS011;3469;47.060;15.460;2022-09-12T04:42:23;2.03;;;1.43;;
6860;SDS011;3469;47.060;15.460;2022-09-12T04:44:53;2.80;;;1.63;;
6860;SDS011;3469;47.060;15.460;2022-09-12T04:47:21;9.23;;;2.10;;
6860;SDS011;3469;47.060;15.460;2022-09-12T04:49:50;3.00;;;1.90;;
6860;SDS011;3469;47.060;15.460;2022-09-12T04:52:18;4.53;;;1.70;;
6860;SDS011;3469;47.060;15.460;2022-09-12T04:54:46;8.50;;;2.60;;
6860;SDS011;3469;47.060;15.460;2022-09-12T04:57:14;3.70;;;2.00;;
6860;SDS011;3469;47.060;15.460;2022-09-12T04:59:42;4.33;;;1.90;;
6860;SDS011;3469;47.060;15.460;2022-09-12T05:02:12;3.30;;;2.60;;
6860;SDS011;3469;47.060;15.460;2022-09-12T05:04:40;2.63;;;1.70;;
6860;SDS011;3469;47.060;15.460;2022-09-12T05:07:09;2.80;;;1.73;;
6860;SDS011;3469;47.060;15.460;2022-09-12T05:09:37;2.70;;;2.03;;
6860;SDS011;3469;47.060;15.460;2022-09-12T05:12:05;2.40;;;2.20;;
6860;SDS011;3469;47.060;15.460;2022-09-12T05:14:35;4.70;;;2.40;;
6860;SDS011;3469;47.060;15.460;2022-09-12T05:17:03;2.83;;;2.10;;
6860;SDS011;3469;47.060;15.460;2022-09-12T05:19:33;3.50;;;2.40;;
6860;SDS011;3469;47.060;15.460;2022-09-12T05:22:02;3.20;;;2.00;;
6860;SDS011;3469;47.060;15.460;2022-09-12T05:24:32;6.10;;;2.00;;
6860;SDS011;3469;47.060;15.460;2022-09-12T05:27:00;5.87;;;2.87;;
6860;SDS011;3469;47.060;15.460;2022-09-12T05:29:30;4.90;;;2.23;;
6860;SDS011;3469;47.060;15.460;2022-09-12T05:32:00;4.93;;;2.03;;
6860;SDS011;3469;47.060;15.460;2022-09-12T05:34:29;3.50;;;2.00;;
6860;SDS011;3469;47.060;15.460;2022-09-12T05:36:58;2.20;;;2.00;;
6860;SDS011;3469;47.060;15.460;2022-09-12T05:39:28;3.20;;;2.70;;
6860;SDS011;3469;47.060;15.460;2022-09-12T05:41:56;6.33;;;2.23;;
6860;SDS011;3469;47.060;15.460;2022-09-12T05:44:25;3.40;;;2.17;;
6860;SDS011;3469;47.060;15.460;2022-09-12T05:46:53;3.27;;;2.03;;
6860;SDS011;3469;47.060;15.460;2022-09-12T05:49:22;4.30;;;2.30;;
6860;SDS011;3469;47.060;15.460;2022-09-12T05:51:50;5.00;;;2.40;;
6860;SDS011;3469;47.060;15.460;2022-09-12T05:54:20;6.03;;;2.30;;
6860;SDS011;3469;47.060;15.460;2022-09-12T05:56:48;2.63;;;2.10;;
6860;SDS011;3469;47.060;15.460;2022-09-12T05:59:17;4.00;;;2.33;;
6860;SDS011;3469;47.060;15.460;2022-09-12T06:01:47;3.27;;;2.30;;
6860;SDS011;3469;47.060;15.460;2022-09-12T06:04:15;1.97;;;1.60;;
6860;SDS011;3469;47.060;15.460;2022-09-12T06:06:44;3.77;;;2.43;;
6860;SDS011;3469;47.060;15.460;2022-09-12T06:09:14;2.10;;;1.90;;
6860;SDS011;3469;47.060;15.460;2022-09-12T06:11:45;4.33;;;3.00;;
6860;SDS011;3469;47.060;15.460;2022-09-12T06:14:14;7.70;;;2.47;;
6860;SDS011;3469;47.060;15.460;2022-09-12T06:16:43;3.77;;;2.03;;
6860;SDS011;3469;47.060;15.460;2022-09-12T06:19:13;2.43;;;2.10;;
6860;SDS011;3469;47.060;15.460;2022-09-12T06:21:43;5.20;;;2.23;;
6860;SDS011;3469;47.060;15.460;2022-09-12T06:24:13;3.70;;;2.07;;
6860;SDS011;3469;47.060;15.460;2022-09-12T06:26:41;3.67;;;2.27;;
6860;SDS011;3469;47.060;15.460;2022-09-12T06:29:12;3.20;;;2.03;;
6860;SDS011;3469;47.060;15.460;2022-09-12T06:31:41;4.40;;;2.47;;
6860;SDS011;3469;47.060;15.460;2022-09-12T06:34:10;5.37;;;2.33;;
6860;SDS011;3469;47.060;15.460;2022-09-12T06:36:40;3.83;;;2.23;;
6860;SDS011;3469;47.060;15.460;2022-09-12T06:39:12;3.73;;;2.90;;
6860;SDS011;3469;47.060;15.460;2022-09-12T06:41:41;9.87;;;2.60;;
6860;SDS011;3469;47.060;15.460;2022-09-12T06:44:12;4.07;;;2.27;;
6860;SDS011;3469;47.060;15.460;2022-09-12T06:46:42;3.83;;;2.47;;
6860;SDS011;3469;47.060;15.460;2022-09-12T06:49:10;3.90;;;2.37;;
6860;SDS011;3469;47.060;15.460;2022-09-12T06:51:39;2.53;;;2.10;;
6860;SDS011;3469;47.060;15.460;2022-09-12T06:54:11;3.43;;;3.00;;
6860;SDS011;3469;47.060;15.460;2022-09-12T06:56:39;5.07;;;2.83;;
6860;SDS011;3469;47.060;15.460;2022-09-12T06:59:08;2.83;;;2.20;;
6860;SDS011;3469;47.060;15.460;2022-09-12T07:01:38;3.50;;;3.00;;
6860;SDS011;3469;47.060;15.460;2022-09-12T07:04:07;4.87;;;2.20;;
6860;SDS011;3469;47.060;15.460;2022-09-12T07:06:36;2.50;;;2.30;;
6860;SDS011;3469;47.060;15.460;2022-09-12T07:09:06;3.50;;;2.60;;
6860;SDS011;3469;47.060;15.460;2022-09-12T07:11:36;4.30;;;2.70;;
6860;SDS011;3469;47.060;15.460;2022-09-12T07:14:05;5.00;;;2.00;;
6860;SDS011;3469;47.060;15.460;2022-09-12T07:16:35;3.03;;;2.20;;
6860;SDS011;3469;47.060;15.460;2022-09-12T07:19:05;11.27;;;2.30;;
6860;SDS011;3469;47.060;15.460;2022-09-12T07:21:34;5.27;;;2.20;;
6860;SDS011;3469;47.060;15.460;2022-09-12T07:24:06;5.60;;;2.50;;
6860;SDS011;3469;47.060;15.460;2022-09-12T07:26:35;4.60;;;2.57;;
6860;SDS011;3469;47.060;15.460;2022-09-12T07:29:05;4.23;;;2.50;;
6860;SDS011;3469;47.060;15.460;2022-09-12T07:31:54;4.87;;;2.40;;
6860;SDS011;3469;47.060;15.460;2022-09-12T07:34:24;3.93;;;2.63;;
6860;SDS011;3469;47.060;15.460;2022-09-12T07:36:53;7.53;;;2.57;;
6860;SDS011;3469;47.060;15.460;2022-09-12T07:39:21;3.60;;;2.03;;
6860;SDS011;3469;47.060;15.460;2022-09-12T07:41:49;7.27;;;2.10;;
6860;SDS011;3469;47.060;15.460;2022-09-12T07:44:17;3.27;;;2.27;;
6860;SDS011;3469;47.060;15.460;2022-09-12T07:46:47;4.30;;;2.27;;
6860;SDS011;3469;47.060;15.460;2022-09-12T07:49:16;4.40;;;2.07;;
6860;SDS011;3469;47.060;15.460;2022-09-12T07:51:46;3.13;;;2.60;;
6860;SDS011;3469;47.060;15.460;2022-09-12T07:54:14;2.90;;;2.33;;
6860;SDS011;3469;47.060;15.460;2022-09-12T07:56:42;5.03;;;2.63;;
6860;SDS011;3469;47.060;15.460;2022-09-12T07:59:11;4.00;;;2.93;;
6860;SDS011;3469;47.060;15.460;2022-09-12T08:01:55;2.57;;;2.30;;
6860;SDS011;3469;47.060;15.460;2022-09-12T08:04:23;4.07;;;2.20;;
6860;SDS011;3469;47.060;15.460;2022-09-12T08:06:53;3.50;;;2.57;;
6860;SDS011;3469;47.060;15.460;2022-09-12T08:09:21;12.33;;;2.90;;
6860;SDS011;3469;47.060;15.460;2022-09-12T08:11:49;7.00;;;2.80;;
6860;SDS011;3469;47.060;15.460;2022-09-12T08:14:18;4.30;;;2.70;;
6860;SDS011;3469;47.060;15.460;2022-09-12T08:16:47;9.53;;;3.60;;
6860;SDS011;3469;47.060;15.460;2022-09-12T08:19:15;3.37;;;2.47;;
6860;SDS011;3469;47.060;15.460;2022-09-12T08:21:43;2.30;;;2.10;;
6860;SDS011;3469;47.060;15.460;2022-09-12T08:24:13;2.43;;;2.00;;
6860;SDS011;3469;47.060;15.460;2022-09-12T08:26:41;4.93;;;2.37;;
6860;SDS011;3469;47.060;15.460;2022-09-12T08:29:10;4.60;;;2.40;;
6860;SDS011;3469;47.060;15.460;2022-09-12T08:31:38;3.00;;;2.33;;
6860;SDS011;3469;47.060;15.460;2022-09-12T08:34:08;3.27;;;1.70;;
6860;SDS011;3469;47.060;15.460;2022-09-12T08:36:36;3.30;;;1.80;;
6860;SDS011;3469;47.060;15.460;2022-09-12T08:39:05;4.10;;;2.20;;
6860;SDS011;3469;47.060;15.460;2022-09-12T08:41:37;3.17;;;1.90;;
6860;SDS011;3469;47.060;15.460;2022-09-12T08:47:06;2.63;;;1.50;;
6860;SDS011;3469;47.060;15.460;2022-09-12T08:49:40;3.00;;;1.23;;
6860;SDS011;3469;47.060;15.460;2022-09-12T08:52:15;1.53;;;1.33;;
6860;SDS011;3469;47.060;15.460;2022-09-12T08:54:47;1.53;;;1.10;;
6860;SDS011;3469;47.060;15.460;2022-09-12T08:57:17;2.47;;;1.50;;
6860;SDS011;3469;47.060;15.460;2022-09-12T08:59:45;1.80;;;1.23;;
6860;SDS011;3469;47.060;15.460;2022-09-12T09:02:23;1.30;;;1.10;;
6860;SDS011;3469;47.060;15.460;2022-09-12T09:05:00;1.90;;;1.20;;
6860;SDS011;3469;47.060;15.460;2022-09-12T09:07:45;2.77;;;1.80;;
6860;SDS011;3469;47.060;15.460;2022-09-12T09:10:32;1.77;;;1.33;;
6860;SDS011;3469;47.060;15.460;2022-09-12T09:13:10;3.03;;;1.20;;
6860;SDS011;3469;47.060;15.460;2022-09-12T09:16:07;1.63;;;1.20;;
6860;SDS011;3469;47.060;15.460;2022-09-12T09:18:36;1.53;;;1.20;;
6860;SDS011;3469;47.060;15.460;2022-09-12T09:21:08;2.13;;;1.10;;
6860;SDS011;3469;47.060;15.460;2022-09-12T09:23:43;4.27;;;1.60;;
6860;SDS011;3469;47.060;15.460;2022-09-12T09:26:14;2.60;;;1.30;;
6860;SDS011;3469;47.060;15.460;2022-09-12T09:28:47;2.70;;;1.47;;
6860;SDS011;3469;47.060;15.460;2022-09-12T09:31:18;1.87;;;1.50;;
6860;SDS011;3469;47.060;15.460;2022-09-12T09:33:48;1.73;;;0.80;;
6860;SDS011;3469;47.060;15.460;2022-09-12T09:36:19;2.33;;;1.70;;
6860;SDS011;3469;47.060;15.460;2022-09-12T09:38:49;4.43;;;1.33;;
6860;SDS011;3469;47.060;15.460;2022-09-12T09:41:24;4.00;;;1.10;;
6860;SDS011;3469;47.060;15.460;2022-09-12T09:44:01;1.80;;;1.23;;
6860;SDS011;3469;47.060;15.460;2022-09-12T09:46:30;1.47;;;1.13;;
6860;SDS011;3469;47.060;15.460;2022-09-12T09:48:59;5.17;;;1.53;;
6860;SDS011;3469;47.060;15.460;2022-09-12T09:51:32;2.07;;;1.40;;
6860;SDS011;3469;47.060;15.460;2022-09-12T09:54:02;2.70;;;1.40;;
6860;SDS011;3469;47.060;15.460;2022-09-12T09:56:38;2.00;;;1.47;;
6860;SDS011;3469;47.060;15.460;2022-09-12T09:59:10;2.77;;;1.60;;
6860;SDS011;3469;47.060;15.460;2022-09-12T10:01:48;4.70;;;1.90;;
6860;SDS011;3469;47.060;15.460;2022-09-12T10:04:20;3.03;;;1.37;;
6860;SDS011;3469;47.060;15.460;2022-09-12T10:06:50;1.70;;;1.40;;
6860;SDS011;3469;47.060;15.460;2022-09-12T10:09:21;4.90;;;1.27;;
6860;SDS011;3469;47.060;15.460;2022-09-12T10:11:50;2.40;;;1.47;;
6860;SDS011;3469;47.060;15.460;2022-09-12T10:14:28;3.10;;;1.50;;
6860;SDS011;3469;47.060;15.460;2022-09-12T10:17:03;4.50;;;1.63;;
6860;SDS011;3469;47.060;15.460;2022-09-12T10:19:50;1.60;;;1.50;;
6860;SDS011;3469;47.060;15.460;2022-09-12T10:22:39;3.17;;;1.87;;
6860;SDS011;3469;47.060;15.460;2022-09-12T10:25:10;2.80;;;1.57;;
6860;SDS011;3469;47.060;15.460;2022-09-12T10:27:42;1.63;;;1.23;;
6860;SDS011;3469;47.060;15.460;2022-09-12T10:30:16;2.60;;;1.50;;
6860;SDS011;3469;47.060;15.460;2022-09-12T10:32:46;1.67;;;1.23;;
6860;SDS011;3469;47.060;15.460;2022-09-12T10:35:17;3.00;;;1.50;;
6860;SDS011;3469;47.060;15.460;2022-09-12T10:37:51;1.27;;;1.10;;
6860;SDS011;3469;47.060;15.460;2022-09-12T10:40:22;1.23;;;1.10;;
6860;SDS011;3469;47.060;15.460;2022-09-12T10:42:52;1.37;;;1.27;;
6860;SDS011;3469;47.060;15.460;2022-09-12T10:45:24;2.30;;;1.20;;
6860;SDS011;3469;47.060;15.460;2022-09-12T10:47:55;2.17;;;1.67;;
6860;SDS011;3469;47.060;15.460;2022-09-12T10:50:30;1.97;;;1.20;;
6860;SDS011;3469;47.060;15.460;2022-09-12T10:56:00;1.60;;;1.20;;
6860;SDS011;3469;47.060;15.460;2022-09-12T10:58:50;2.20;;;1.33;;
6860;SDS011;3469;47.060;15.460;2022-09-12T11:04:28;2.27;;;1.07;;
6860;SDS011;3469;47.060;15.460;2022-09-12T11:07:09;2.20;;;1.50;;
6860;SDS011;3469;47.060;15.460;2022-09-12T11:09:47;1.53;;;1.17;;
6860;SDS011;3469;47.060;15.460;2022-09-12T11:12:20;1.93;;;1.40;;
6860;SDS011;3469;47.060;15.460;2022-09-12T11:14:55;2.07;;;1.20;;
6860;SDS011;3469;47.060;15.460;2022-09-12T11:17:34;2.90;;;1.43;;
6860;SDS011;3469;47.060;15.460;2022-09-12T11:20:12;1.80;;;1.57;;
6860;SDS011;3469;47.060;15.460;2022-09-12T11:25:51;1.73;;;1.10;;
6860;SDS011;3469;47.060;15.460;2022-09-12T11:28:26;2.13;;;1.50;;
6860;SDS011;3469;47.060;15.460;2022-09-12T11:31:12;4.20;;;1.73;;
6860;SDS011;3469;47.060;15.460;2022-09-12T11:33:54;1.10;;;1.00;;
6860;SDS011;3469;47.060;15.460;2022-09-12T11:36:26;1.77;;;1.40;;
6860;SDS011;3469;47.060;15.460;2022-09-12T11:39:01;2.40;;;1.10;;
6860;SDS011;3469;47.060;15.460;2022-09-12T11:41:33;2.33;;;1.17;;
6860;SDS011;3469;47.060;15.460;2022-09-12T11:44:05;2.07;;;1.20;;
6860;SDS011;3469;47.060;15.460;2022-09-12T11:46:41;1.60;;;1.30;;
6860;SDS011;3469;47.060;15.460;2022-09-12T11:49:17;2.23;;;1.33;;
6860;SDS011;3469;47.060;15.460;2022-09-12T11:51:49;3.10;;;1.40;;
6860;SDS011;3469;47.060;15.460;2022-09-12T11:54:21;6.77;;;1.53;;
6860;SDS011;3469;47.060;15.460;2022-09-12T11:56:54;4.80;;;1.73;;
6860;SDS011;3469;47.060;15.460;2022-09-12T11:59:34;1.30;;;1.10;;
6860;SDS011;3469;47.060;15.460;2022-09-12T12:02:11;2.27;;;1.00;;
6860;SDS011;3469;47.060;15.460;2022-09-12T12:04:43;2.20;;;1.60;;
6860;SDS011;3469;47.060;15.460;2022-09-12T12:07:22;3.30;;;1.33;;
6860;SDS011;3469;47.060;15.460;2022-09-12T12:09:51;1.50;;;1.10;;
6860;SDS011;3469;47.060;15.460;2022-09-12T12:12:21;2.07;;;1.40;;
6860;SDS011;3469;47.060;15.460;2022-09-12T12:14:51;1.20;;;0.80;;
6860;SDS011;3469;47.060;15.460;2022-09-12T12:17:20;1.73;;;1.10;;
6860;SDS011;3469;47.060;15.460;2022-09-12T12:19:57;1.50;;;1.40;;
6860;SDS011;3469;47.060;15.460;2022-09-12T12:22:33;2.63;;;1.30;;
6860;SDS011;3469;47.060;15.460;2022-09-12T12:25:04;1.40;;;1.30;;
6860;SDS011;3469;47.060;15.460;2022-09-12T12:27:44;0.93;;;0.83;;
6860;SDS011;3469;47.060;15.460;2022-09-12T12:33:51;1.40;;;1.00;;
6860;SDS011;3469;47.060;15.460;2022-09-12T12:36:36;2.43;;;1.60;;
6860;SDS011;3469;47.060;15.460;2022-09-12T12:48:29;1.27;;;0.90;;
6860;SDS011;3469;47.060;15.460;2022-09-12T12:51:14;1.80;;;0.80;;
6860;SDS011;3469;47.060;15.460;2022-09-12T12:53:50;1.30;;;1.20;;
6860;SDS011;3469;47.060;15.460;2022-09-12T12:56:24;1.17;;;0.90;;
6860;SDS011;3469;47.060;15.460;2022-09-12T12:58:56;1.73;;;1.20;;
6860;SDS011;3469;47.060;15.460;2022-09-12T13:01:28;1.43;;;1.20;;
6860;SDS011;3469;47.060;15.460;2022-09-12T13:03:58;1.30;;;1.17;;
6860;SDS011;3469;47.060;15.460;2022-09-12T13:06:30;4.97;;;1.00;;
6860;SDS011;3469;47.060;15.460;2022-09-12T13:09:01;1.00;;;0.80;;
6860;SDS011;3469;47.060;15.460;2022-09-12T13:11:32;3.73;;;1.30;;
6860;SDS011;3469;47.060;15.460;2022-09-12T13:14:01;2.07;;;1.70;;
6860;SDS011;3469;47.060;15.460;2022-09-12T13:16:31;2.07;;;1.03;;
6860;SDS011;3469;47.060;15.460;2022-09-12T13:19:01;3.17;;;1.07;;
6860;SDS011;3469;47.060;15.460;2022-09-12T13:21:31;2.70;;;1.23;;
6860;SDS011;3469;47.060;15.460;2022-09-12T13:24:04;1.43;;;1.10;;
6860;SDS011;3469;47.060;15.460;2022-09-12T13:26:40;2.73;;;1.23;;
6860;SDS011;3469;47.060;15.460;2022-09-12T13:29:10;1.77;;;0.93;;
6860;SDS011;3469;47.060;15.460;2022-09-12T13:31:39;1.80;;;0.77;;
6860;SDS011;3469;47.060;15.460;2022-09-12T13:34:14;1.10;;;0.90;;
6860;SDS011;3469;47.060;15.460;2022-09-12T13:36:51;1.57;;;1.00;;
6860;SDS011;3469;47.060;15.460;2022-09-12T13:39:27;2.90;;;1.40;;
6860;SDS011;3469;47.060;15.460;2022-09-12T13:44:57;1.30;;;1.10;;
6860;SDS011;3469;47.060;15.460;2022-09-12T13:47:27;1.10;;;1.00;;
6860;SDS011;3469;47.060;15.460;2022-09-12T13:49:58;1.47;;;1.13;;
6860;SDS011;3469;47.060;15.460;2022-09-12T13:52:28;1.10;;;0.90;;
6860;SDS011;3469;47.060;15.460;2022-09-12T13:54:58;2.70;;;0.90;;
6860;SDS011;3469;47.060;15.460;2022-09-12T13:57:28;1.30;;;0.93;;
6860;SDS011;3469;47.060;15.460;2022-09-12T13:59:59;1.13;;;0.90;;
6860;SDS011;3469;47.060;15.460;2022-09-12T14:02:32;1.70;;;1.10;;
6860;SDS011;3469;47.060;15.460;2022-09-12T14:05:12;1.50;;;1.00;;
6860;SDS011;3469;47.060;15.460;2022-09-12T14:07:50;1.10;;;1.00;;
6860;SDS011;3469;47.060;15.460;2022-09-12T14:10:27;2.40;;;1.20;;
6860;SDS011;3469;47.060;15.460;2022-09-12T14:12:57;2.00;;;0.80;;
6860;SDS011;3469;47.060;15.460;2022-09-12T14:15:27;1.50;;;1.00;;
6860;SDS011;3469;47.060;15.460;2022-09-12T14:17:58;1.20;;;1.10;;
6860;SDS011;3469;47.060;15.460;2022-09-12T14:20:29;0.97;;;0.90;;
6860;SDS011;3469;47.060;15.460;2022-09-12T14:23:00;1.90;;;1.30;;
6860;SDS011;3469;47.060;15.460;2022-09-12T14:25:34;1.07;;;0.97;;
6860;SDS011;3469;47.060;15.460;2022-09-12T14:28:04;1.53;;;1.13;;
6860;SDS011;3469;47.060;15.460;2022-09-12T14:30:33;1.17;;;1.03;;
6860;SDS011;3469;47.060;15.460;2022-09-12T14:33:04;2.63;;;1.40;;
6860;SDS011;3469;47.060;15.460;2022-09-12T14:35:43;1.97;;;1.10;;
6860;SDS011;3469;47.060;15.460;2022-09-12T14:38:16;1.27;;;1.07;;
6860;SDS011;3469;47.060;15.460;2022-09-12T14:40:51;2.17;;;1.10;;
6860;SDS011;3469;47.060;15.460;2022-09-12T14:43:26;4.80;;;1.30;;
6860;SDS011;3469;47.060;15.460;2022-09-12T14:45:56;3.50;;;1.20;;
6860;SDS011;3469;47.060;15.460;2022-09-12T14:48:26;2.00;;;1.10;;
6860;SDS011;3469;47.060;15.460;2022-09-12T14:50:56;2.20;;;1.20;;
6860;SDS011;3469;47.060;15.460;2022-09-12T14:53:29;2.50;;;1.20;;
6860;SDS011;3469;47.060;15.460;2022-09-12T14:56:06;1.27;;;1.10;;
6860;SDS011;3469;47.060;15.460;2022-09-12T14:58:36;3.00;;;1.00;;
6860;SDS011;3469;47.060;15.460;2022-09-12T15:01:20;1.80;;;1.00;;
6860;SDS011;3469;47.060;15.460;2022-09-12T15:03:52;1.30;;;1.10;;
6860;SDS011;3469;47.060;15.460;2022-09-12T15:06:23;1.73;;;1.40;;
6860;SDS011;3469;47.060;15.460;2022-09-12T15:08:55;0.93;;;0.90;;
6860;SDS011;3469;47.060;15.460;2022-09-12T15:11:26;1.10;;;0.90;;
6860;SDS011;3469;47.060;15.460;2022-09-12T15:13:56;4.10;;;1.40;;
6860;SDS011;3469;47.060;15.460;2022-09-12T15:16:24;1.20;;;1.07;;
6860;SDS011;3469;47.060;15.460;2022-09-12T15:18:52;4.50;;;1.00;;
6860;SDS011;3469;47.060;15.460;2022-09-12T15:21:20;1.10;;;1.00;;
6860;SDS011;3469;47.060;15.460;2022-09-12T15:23:49;2.70;;;1.27;;
6860;SDS011;3469;47.060;15.460;2022-09-12T15:26:19;1.17;;;1.07;;
6860;SDS011;3469;47.060;15.460;2022-09-12T15:28:50;1.90;;;1.07;;
6860;SDS011;3469;47.060;15.460;2022-09-12T15:31:21;2.60;;;1.10;;
6860;SDS011;3469;47.060;15.460;2022-09-12T15:33:51;2.07;;;1.37;;
6860;SDS011;3469;47.060;15.460;2022-09-12T15:36:20;1.30;;;1.10;;
6860;SDS011;3469;47.060;15.460;2022-09-12T15:38:49;3.93;;;1.50;;
6860;SDS011;3469;47.060;15.460;2022-09-12T15:41:18;1.83;;;1.50;;
6860;SDS011;3469;47.060;15.460;2022-09-12T15:43:47;2.53;;;1.20;;
6860;SDS011;3469;47.060;15.460;2022-09-12T15:46:18;2.07;;;1.57;;
6860;SDS011;3469;47.060;15.460;2022-09-12T15:48:46;1.20;;;1.10;;
6860;SDS011;3469;47.060;15.460;2022-09-12T15:51:16;1.63;;;1.10;;
6860;SDS011;3469;47.060;15.460;2022-09-12T15:53:45;1.33;;;1.23;;
6860;SDS011;3469;47.060;15.460;2022-09-12T15:56:14;1.30;;;1.20;;
6860;SDS011;3469;47.060;15.460;2022-09-12T15:58:43;2.47;;;1.30;;
6860;SDS011;3469;47.060;15.460;2022-09-12T16:01:26;1.50;;;1.10;;